createdAt,value
2019-06-01T00:02:00.206Z,5.25
2019-06-01T00:04:28.428Z,6.08
2019-06-01T00:06:56.635Z,3.87
2019-06-01T00:09:24.860Z,4.08
2019-06-01T00:11:53.055Z,3.75
2019-06-01T00:14:21.248Z,3.85
2019-06-01T00:16:50.372Z,5.28
2019-06-01T00:19:18.679Z,4.35
2019-06-01T00:21:47.404Z,4.42
2019-06-01T00:24:15.708Z,4.53
2019-06-01T00:26:43.936Z,5.12
2019-06-01T00:29:12.147Z,3.60
2019-06-01T00:31:41.225Z,3.95
2019-06-01T00:34:09.554Z,3.95
2019-06-01T00:36:37.776Z,3.92
2019-06-01T00:39:06.443Z,3.65
2019-06-01T00:41:34.663Z,3.77
2019-06-01T00:44:02.859Z,4.28
2019-06-01T00:46:31.091Z,3.83
2019-06-01T00:48:59.284Z,4.17
2019-06-01T00:51:27.504Z,3.42
2019-06-01T00:53:55.695Z,8.53
2019-06-01T00:56:23.897Z,6.08
2019-06-01T00:58:52.123Z,3.10
2019-06-01T01:01:20.311Z,4.00
2019-06-01T01:03:48.533Z,3.52
2019-06-01T01:06:16.724Z,3.40
2019-06-01T01:08:44.974Z,5.97
2019-06-01T01:11:13.210Z,4.87
2019-06-01T01:13:41.499Z,4.90
2019-06-01T01:16:09.701Z,4.05
2019-06-01T01:18:37.920Z,3.60
2019-06-01T01:21:06.112Z,3.62
2019-06-01T01:23:34.331Z,3.45
2019-06-01T01:26:02.532Z,5.03
2019-06-01T01:28:30.743Z,3.85
2019-06-01T01:31:12.525Z,3.25
2019-06-01T01:33:28.828Z,3.37
2019-06-01T01:35:57.811Z,3.33
2019-06-01T01:38:26.052Z,2.85
2019-06-01T01:40:54.263Z,2.95
2019-06-01T01:43:22.458Z,3.35
2019-06-01T01:45:50.699Z,3.33
2019-06-01T01:48:18.883Z,4.45
2019-06-01T01:50:47.100Z,3.05
2019-06-01T01:53:15.298Z,2.87
2019-06-01T01:55:43.516Z,3.67
2019-06-01T01:58:11.721Z,4.10
2019-06-01T02:00:44.234Z,3.75
2019-06-01T02:03:12.472Z,4.80
2019-06-01T02:05:40.658Z,3.15
2019-06-01T02:08:08.893Z,3.20
2019-06-01T02:10:37.086Z,3.45
2019-06-01T02:13:05.576Z,2.65
2019-06-01T02:15:34.147Z,4.62
2019-06-01T02:18:02.906Z,4.10
2019-06-01T02:20:31.539Z,3.95
2019-06-01T02:23:00.909Z,2.45
2019-06-01T02:25:29.277Z,3.42
2019-06-01T02:27:57.505Z,2.75
2019-06-01T02:30:25.706Z,3.12
2019-06-01T02:32:53.948Z,3.47
2019-06-01T02:35:22.143Z,3.00
2019-06-01T02:37:50.364Z,3.37
2019-06-01T02:40:18.632Z,3.05
2019-06-01T02:42:47.225Z,3.37
2019-06-01T02:45:15.492Z,2.80
2019-06-01T02:47:43.696Z,3.83
2019-06-01T02:50:11.917Z,2.80
2019-06-01T02:52:40.111Z,5.35
2019-06-01T02:55:09.970Z,3.50
2019-06-01T02:57:38.173Z,2.62
2019-06-01T03:00:06.742Z,3.45
2019-06-01T03:02:35.082Z,3.72
2019-06-01T03:05:05.412Z,3.12
2019-06-01T03:07:33.808Z,3.25
2019-06-01T03:10:03.143Z,2.77
2019-06-01T03:12:31.970Z,2.47
2019-06-01T03:15:00.412Z,3.45
2019-06-01T03:17:30.688Z,2.92
2019-06-01T03:19:59.641Z,2.75
2019-06-01T03:22:28.015Z,3.60
2019-06-01T03:24:56.230Z,3.30
2019-06-01T03:27:24.436Z,3.80
2019-06-01T03:29:54.356Z,3.50
2019-06-01T03:32:35.368Z,2.65
2019-06-01T03:34:52.425Z,3.25
2019-06-01T03:37:20.688Z,3.70
2019-06-01T03:39:49.002Z,6.58
2019-06-01T03:42:17.271Z,5.25
2019-06-01T03:44:45.484Z,3.15
2019-06-01T03:47:13.683Z,3.33
2019-06-01T03:49:41.910Z,3.15
2019-06-01T03:52:10.098Z,5.00
2019-06-01T03:54:38.292Z,2.75
2019-06-01T03:57:07.279Z,2.55
2019-06-01T03:59:35.490Z,3.47
2019-06-01T04:02:05.009Z,4.53
2019-06-01T04:04:33.308Z,4.28
2019-06-01T04:07:01.538Z,4.25
2019-06-01T04:09:29.730Z,3.35
2019-06-01T04:11:57.953Z,3.00
2019-06-01T04:14:26.175Z,3.02
2019-06-01T04:16:54.375Z,3.25
2019-06-01T04:19:22.584Z,4.10
2019-06-01T04:21:50.847Z,4.20
2019-06-01T04:24:19.136Z,4.53
2019-06-01T04:26:47.335Z,2.83
2019-06-01T04:29:15.548Z,4.15
2019-06-01T04:31:43.812Z,3.42
2019-06-01T04:34:13.027Z,4.33
2019-06-01T04:36:41.432Z,5.53
2019-06-01T04:39:09.658Z,2.65
2019-06-01T04:41:37.859Z,2.40
2019-06-01T04:44:07.831Z,2.92
2019-06-01T04:46:36.160Z,3.27
2019-06-01T04:49:04.415Z,2.62
2019-06-01T04:51:32.751Z,3.00
2019-06-01T04:54:00.936Z,3.05
2019-06-01T04:56:29.224Z,2.70
2019-06-01T04:58:57.428Z,2.70
2019-06-01T05:01:25.712Z,4.45
2019-06-01T05:03:53.911Z,4.70
2019-06-01T05:06:22.145Z,5.25
2019-06-01T05:08:50.335Z,2.67
2019-06-01T05:11:18.528Z,2.60
2019-06-01T05:13:46.751Z,2.27
2019-06-01T05:16:16.463Z,4.35
2019-06-01T05:18:44.846Z,4.05
2019-06-01T05:21:13.097Z,2.87
2019-06-01T05:23:41.435Z,2.80
2019-06-01T05:26:10.879Z,2.80
2019-06-01T05:28:39.271Z,2.05
2019-06-01T05:31:09.738Z,3.37
2019-06-01T05:33:37.823Z,4.15
2019-06-01T05:36:06.221Z,3.87
2019-06-01T05:38:34.443Z,3.30
2019-06-01T05:41:02.663Z,2.20
2019-06-01T05:43:30.884Z,3.35
2019-06-01T05:45:59.099Z,3.20
2019-06-01T05:48:30.550Z,2.80
2019-06-01T05:50:57.172Z,2.77
2019-06-01T05:53:25.367Z,4.12
2019-06-01T05:55:53.588Z,2.10
2019-06-01T05:58:21.867Z,1.98
2019-06-01T06:00:50.095Z,2.00
2019-06-01T06:03:21.779Z,3.25
2019-06-01T06:05:48.240Z,2.08
2019-06-01T06:08:16.427Z,2.25
2019-06-01T06:10:44.939Z,2.00
2019-06-01T06:13:17.350Z,1.70
2019-06-01T06:15:45.736Z,3.47
2019-06-01T06:18:13.942Z,9.78
2019-06-01T06:20:42.159Z,3.17
2019-06-01T06:23:10.364Z,2.37
2019-06-01T06:25:41.044Z,2.22
2019-06-01T06:28:08.433Z,2.47
2019-06-01T06:30:36.666Z,2.37
2019-06-01T06:33:04.860Z,4.80
2019-06-01T06:35:33.067Z,1.90
2019-06-01T06:38:01.291Z,1.62
2019-06-01T06:40:29.489Z,2.02
2019-06-01T06:42:57.773Z,1.60
2019-06-01T06:45:25.906Z,3.98
2019-06-01T06:47:54.133Z,3.05
2019-06-01T06:50:23.446Z,2.92
2019-06-01T06:52:51.862Z,3.90
2019-06-01T06:55:20.127Z,1.90
2019-06-01T06:57:48.289Z,2.37
2019-06-01T07:00:16.738Z,1.65
2019-06-01T07:02:44.956Z,2.30
2019-06-01T07:05:13.165Z,1.92
2019-06-01T07:07:41.362Z,1.30
2019-06-01T07:10:09.572Z,2.52
2019-06-01T07:12:37.800Z,2.05
2019-06-01T07:15:06.165Z,1.80
2019-06-01T07:17:34.469Z,2.70
2019-06-01T07:20:03.123Z,2.62
2019-06-01T07:22:32.135Z,5.65
2019-06-01T07:25:00.445Z,2.65
2019-06-01T07:27:28.668Z,1.52
2019-06-01T07:29:56.891Z,1.22
2019-06-01T07:32:26.596Z,2.12
2019-06-01T07:34:54.903Z,3.33
2019-06-01T07:37:24.346Z,3.85
2019-06-01T07:39:52.619Z,1.20
2019-06-01T07:42:24.441Z,2.83
2019-06-01T07:44:50.732Z,6.30
2019-06-01T07:47:18.908Z,1.32
2019-06-01T07:49:47.135Z,1.35
2019-06-01T07:52:15.327Z,1.90
2019-06-01T07:54:43.543Z,1.57
2019-06-01T07:57:11.738Z,1.42
2019-06-01T07:59:39.960Z,4.05
2019-06-01T08:02:08.175Z,1.40
2019-06-01T08:04:52.938Z,4.15
2019-06-01T08:07:06.446Z,2.00
2019-06-01T08:09:34.634Z,2.05
2019-06-01T08:12:02.998Z,1.50
2019-06-01T08:14:31.171Z,2.58
2019-06-01T08:16:59.391Z,1.47
2019-06-01T08:19:28.034Z,1.87
2019-06-01T08:21:56.491Z,1.30
2019-06-01T08:24:24.679Z,2.47
2019-06-01T08:26:52.968Z,5.70
2019-06-01T08:29:22.509Z,0.90
2019-06-01T08:31:55.644Z,1.62
2019-06-01T08:34:20.767Z,2.45
2019-06-01T08:36:48.964Z,2.35
2019-06-01T08:39:17.179Z,2.25
2019-06-01T08:41:45.375Z,2.22
2019-06-01T08:44:13.607Z,2.00
2019-06-01T08:46:41.799Z,2.55
2019-06-01T08:49:10.066Z,1.50
2019-06-01T08:51:38.255Z,1.75
2019-06-01T08:54:06.480Z,3.55
2019-06-01T08:56:34.678Z,1.92
2019-06-01T08:59:03.121Z,2.65
2019-06-01T09:01:32.662Z,0.90
2019-06-01T09:04:01.029Z,3.15
2019-06-01T09:06:29.259Z,2.05
2019-06-01T09:08:57.459Z,2.37
2019-06-01T09:11:26.946Z,1.20
2019-06-01T09:13:55.287Z,0.78
2019-06-01T09:16:23.509Z,1.82
2019-06-01T09:18:51.705Z,1.98
2019-06-01T09:21:20.006Z,2.05
2019-06-01T09:23:48.192Z,2.10
2019-06-01T09:26:16.412Z,1.45
2019-06-01T09:28:44.602Z,1.37
2019-06-01T09:31:12.838Z,2.50
2019-06-01T09:33:41.100Z,1.87
2019-06-01T09:36:09.320Z,2.05
2019-06-01T09:38:37.890Z,1.50
2019-06-01T09:41:06.138Z,1.22
2019-06-01T09:43:34.980Z,1.80
2019-06-01T09:46:03.258Z,1.10
2019-06-01T09:48:31.511Z,1.45
2019-06-01T09:50:59.676Z,0.93
2019-06-01T09:53:29.396Z,1.22
2019-06-01T09:55:57.766Z,2.80
2019-06-01T09:58:26.036Z,0.98
2019-06-01T10:00:54.173Z,1.82
2019-06-01T10:03:22.394Z,2.00
2019-06-01T10:06:01.315Z,2.33
2019-06-01T10:08:20.500Z,1.35
2019-06-01T10:10:48.687Z,1.55
2019-06-01T10:13:16.915Z,2.00
2019-06-01T10:15:45.135Z,1.07
2019-06-01T10:18:13.332Z,2.52
2019-06-01T10:20:41.544Z,1.12
2019-06-01T10:23:09.767Z,1.65
2019-06-01T10:25:38.551Z,0.82
2019-06-01T10:28:06.894Z,1.72
2019-06-01T10:30:35.816Z,2.02
2019-06-01T10:33:04.284Z,1.15
2019-06-01T10:35:32.775Z,2.37
2019-06-01T10:38:01.140Z,2.62
2019-06-01T10:40:29.363Z,0.68
2019-06-01T10:42:57.564Z,1.42
2019-06-01T10:45:25.829Z,2.10
2019-06-01T10:47:53.998Z,1.17
2019-06-01T10:50:22.223Z,1.22
2019-06-01T10:52:50.417Z,2.95
2019-06-01T10:55:18.671Z,1.17
2019-06-01T10:57:46.908Z,2.08
2019-06-01T11:00:15.131Z,1.60
2019-06-01T11:02:43.464Z,1.40
2019-06-01T11:05:11.777Z,1.30
2019-06-01T11:07:41.030Z,2.58
2019-06-01T11:10:09.736Z,2.00
2019-06-01T11:12:39.143Z,2.10
2019-06-01T11:15:10.174Z,1.10
2019-06-01T11:17:39.268Z,1.30
2019-06-01T11:20:07.774Z,1.45
2019-06-01T11:22:35.976Z,1.27
2019-06-01T11:25:04.794Z,1.67
2019-06-01T11:27:33.539Z,1.47
2019-06-01T11:30:01.997Z,1.85
2019-06-01T11:32:30.234Z,1.42
2019-06-01T11:34:58.480Z,2.20
2019-06-01T11:37:26.708Z,1.37
2019-06-01T11:39:54.890Z,1.40
2019-06-01T11:42:23.112Z,1.32
2019-06-01T11:44:51.303Z,1.75
2019-06-01T11:47:19.533Z,2.83
2019-06-01T11:49:47.727Z,2.47
2019-06-01T11:52:16.019Z,1.87
2019-06-01T11:54:45.344Z,2.02
2019-06-01T11:57:13.743Z,1.30
2019-06-01T11:59:41.971Z,2.47
2019-06-01T12:02:10.200Z,6.75
2019-06-01T12:04:39.714Z,2.75
2019-06-01T12:07:17.667Z,1.57
2019-06-01T12:09:38.017Z,1.65
2019-06-01T12:12:06.328Z,1.60
2019-06-01T12:14:34.520Z,1.67
2019-06-01T12:17:02.739Z,1.30
2019-06-01T12:19:30.935Z,1.52
2019-06-01T12:21:59.162Z,1.45
2019-06-01T12:24:27.470Z,1.35
2019-06-01T12:26:55.775Z,2.40
2019-06-01T12:29:24.837Z,3.08
2019-06-01T12:31:53.136Z,1.75
2019-06-01T12:34:21.336Z,1.57
2019-06-01T12:36:49.623Z,3.40
2019-06-01T12:39:17.817Z,1.87
2019-06-01T12:41:46.067Z,2.35
2019-06-01T12:44:14.601Z,3.15
2019-06-01T12:46:43.839Z,1.77
2019-06-01T12:49:12.103Z,1.27
2019-06-01T12:51:40.658Z,1.40
2019-06-01T12:54:08.956Z,2.12
2019-06-01T12:56:37.175Z,1.77
2019-06-01T12:59:05.383Z,2.25
2019-06-01T13:01:33.633Z,1.40
2019-06-01T13:04:01.801Z,1.45
2019-06-01T13:06:30.093Z,2.55
2019-06-01T13:08:58.317Z,1.85
2019-06-01T13:11:26.523Z,1.37
2019-06-01T13:13:54.762Z,4.47
2019-06-01T13:16:22.980Z,2.72
2019-06-01T13:18:51.760Z,3.10
2019-06-01T13:21:20.026Z,1.42
2019-06-01T13:23:49.537Z,2.83
2019-06-01T13:26:17.914Z,3.12
2019-06-01T13:28:46.179Z,2.83
2019-06-01T13:31:14.340Z,3.42
2019-06-01T13:33:42.574Z,2.08
2019-06-01T13:36:10.767Z,2.00
2019-06-01T13:38:38.988Z,2.22
2019-06-01T13:41:07.279Z,2.67
2019-06-01T13:43:35.549Z,1.98
2019-06-01T13:46:06.442Z,3.25
2019-06-01T13:48:34.020Z,1.85
2019-06-01T13:51:02.284Z,2.47
2019-06-01T13:53:30.495Z,4.53
2019-06-01T13:55:58.691Z,1.60
2019-06-01T13:58:27.024Z,6.70
2019-06-01T14:00:55.218Z,2.10
2019-06-01T14:03:23.437Z,4.05
2019-06-01T14:05:51.634Z,2.02
2019-06-01T14:08:28.811Z,1.80
2019-06-01T14:10:49.691Z,2.98
2019-06-01T14:13:17.915Z,1.67
2019-06-01T14:15:47.308Z,2.50
2019-06-01T14:18:15.622Z,5.92
2019-06-01T14:20:43.843Z,1.87
2019-06-01T14:23:12.536Z,3.92
2019-06-01T14:25:40.731Z,3.12
2019-06-01T14:28:08.950Z,2.05
2019-06-01T14:30:37.436Z,2.72
2019-06-01T14:33:05.790Z,1.67
2019-06-01T14:35:35.861Z,2.05
2019-06-01T14:38:03.864Z,2.15
2019-06-01T14:40:32.099Z,1.90
2019-06-01T14:43:00.299Z,3.15
2019-06-01T14:45:28.519Z,1.85
2019-06-01T14:47:57.668Z,4.35
2019-06-01T14:50:25.942Z,4.72
2019-06-01T14:52:54.135Z,3.77
2019-06-01T14:55:22.355Z,1.57
2019-06-01T14:57:52.307Z,3.92
2019-06-01T15:00:20.435Z,2.65
2019-06-01T15:02:48.630Z,2.67
2019-06-01T15:05:16.845Z,1.80
2019-06-01T15:07:45.037Z,1.90
2019-06-01T15:10:13.924Z,3.20
2019-06-01T15:12:42.125Z,3.77
2019-06-01T15:15:11.418Z,3.50
2019-06-01T15:17:39.702Z,2.25
2019-06-01T15:20:07.991Z,2.83
2019-06-01T15:22:36.183Z,1.77
2019-06-01T15:25:06.031Z,2.20
2019-06-01T15:27:34.350Z,1.70
2019-06-01T15:30:03.260Z,3.12
2019-06-01T15:32:31.511Z,2.33
2019-06-01T15:35:00.025Z,2.25
2019-06-01T15:37:28.253Z,2.27
2019-06-01T15:39:56.776Z,3.58
2019-06-01T15:42:25.090Z,3.35
2019-06-01T15:44:53.311Z,2.80
2019-06-01T15:47:21.544Z,2.67
2019-06-01T15:49:49.735Z,2.22
2019-06-01T15:52:19.060Z,3.00
2019-06-01T15:54:47.424Z,3.20
2019-06-01T15:57:15.748Z,2.58
2019-06-01T15:59:47.661Z,1.70
2019-06-01T16:02:20.649Z,5.67
2019-06-01T16:04:49.980Z,2.72
2019-06-01T16:07:18.342Z,3.60
2019-06-01T16:09:46.503Z,4.08
2019-06-01T16:12:15.012Z,2.45
2019-06-01T16:14:43.262Z,2.50
2019-06-01T16:17:11.913Z,3.40
2019-06-01T16:19:40.173Z,4.97
2019-06-01T16:22:08.395Z,2.85
2019-06-01T16:24:36.584Z,1.92
2019-06-01T16:27:04.967Z,3.00
2019-06-01T16:29:34.620Z,3.37
2019-06-01T16:32:03.089Z,2.60
2019-06-01T16:34:31.506Z,2.17
2019-06-01T16:37:01.083Z,2.30
2019-06-01T16:39:29.402Z,3.37
2019-06-01T16:41:57.744Z,6.75
2019-06-01T16:44:26.023Z,1.98
2019-06-01T16:46:55.489Z,2.47
2019-06-01T16:49:27.116Z,2.80
2019-06-01T16:52:01.433Z,2.72
2019-06-01T16:54:30.016Z,9.48
2019-06-01T16:56:58.216Z,2.95
2019-06-01T16:59:26.509Z,3.27
2019-06-01T17:01:54.725Z,2.92
2019-06-01T17:04:22.921Z,2.70
2019-06-01T17:06:51.146Z,2.33
2019-06-01T17:09:19.340Z,2.75
2019-06-01T17:11:47.564Z,1.90
2019-06-01T17:14:15.796Z,1.92
2019-06-01T17:16:44.056Z,1.87
2019-06-01T17:19:12.252Z,5.70
2019-06-01T17:21:40.467Z,2.47
2019-06-01T17:24:08.691Z,2.05
2019-06-01T17:26:36.888Z,2.17
2019-06-01T17:29:06.165Z,3.20
2019-06-01T17:31:34.408Z,2.00
2019-06-01T17:34:02.700Z,3.17
2019-06-01T17:36:30.905Z,2.92
2019-06-01T17:38:59.816Z,1.70
2019-06-01T17:41:28.104Z,4.75
2019-06-01T17:43:56.326Z,3.33
2019-06-01T17:46:24.518Z,2.02
2019-06-01T17:48:52.754Z,5.47
2019-06-01T17:51:21.110Z,1.70
2019-06-01T17:53:53.297Z,2.42
2019-06-01T17:56:20.758Z,2.55
2019-06-01T17:58:48.979Z,3.47
2019-06-01T18:01:17.178Z,1.70
2019-06-01T18:03:45.427Z,1.98
2019-06-01T18:06:13.630Z,2.45
2019-06-01T18:08:41.855Z,1.85
2019-06-01T18:11:10.153Z,2.75
2019-06-01T18:13:38.372Z,2.15
2019-06-01T18:16:06.648Z,2.70
2019-06-01T18:18:34.867Z,2.37
2019-06-01T18:21:04.110Z,2.30
2019-06-01T18:23:32.480Z,2.05
2019-06-01T18:26:00.676Z,2.08
2019-06-01T18:28:29.070Z,1.92
2019-06-01T18:30:57.339Z,2.02
2019-06-01T18:33:25.565Z,3.33
2019-06-01T18:35:53.867Z,2.80
2019-06-01T18:38:22.091Z,3.12
2019-06-01T18:40:50.281Z,3.17
2019-06-01T18:43:18.507Z,3.08
2019-06-01T18:45:46.699Z,2.95
2019-06-01T18:48:15.099Z,2.77
2019-06-01T18:50:43.284Z,2.22
2019-06-01T18:53:12.172Z,2.50
2019-06-01T18:55:40.421Z,4.35
2019-06-01T18:58:08.612Z,2.15
2019-06-01T19:00:39.770Z,3.25
2019-06-01T19:03:07.207Z,6.03
2019-06-01T19:05:35.581Z,3.12
2019-06-01T19:08:05.021Z,2.30
2019-06-01T19:10:33.364Z,4.50
2019-06-01T19:13:01.556Z,2.95
2019-06-01T19:15:29.776Z,5.28
2019-06-01T19:17:57.976Z,4.70
2019-06-01T19:20:26.192Z,3.47
2019-06-01T19:22:54.510Z,3.08
2019-06-01T19:25:22.730Z,3.58
2019-06-01T19:27:50.918Z,3.50
2019-06-01T19:30:23.710Z,3.20
2019-06-01T19:32:51.906Z,6.22
2019-06-01T19:35:20.146Z,2.55
2019-06-01T19:37:48.372Z,5.67
2019-06-01T19:40:18.218Z,5.33
2019-06-01T19:42:46.435Z,5.87
2019-06-01T19:45:25.853Z,3.72
2019-06-01T19:47:44.535Z,2.92
2019-06-01T19:50:12.727Z,3.72
2019-06-01T19:52:40.950Z,3.15
2019-06-01T19:55:09.148Z,5.22
2019-06-01T19:57:37.359Z,3.72
2019-06-01T20:00:06.156Z,5.67
2019-06-01T20:02:34.637Z,8.20
2019-06-01T20:05:03.020Z,11.68
2019-06-01T20:07:31.240Z,8.20
2019-06-01T20:09:59.531Z,7.78
2019-06-01T20:12:27.731Z,8.95
2019-06-01T20:14:55.948Z,8.95
2019-06-01T20:17:26.400Z,7.87
2019-06-01T20:19:54.028Z,6.35
2019-06-01T20:22:22.217Z,8.63
2019-06-01T20:24:50.450Z,6.45
2019-06-01T20:27:19.534Z,8.75
2019-06-01T20:29:47.793Z,7.75
2019-06-01T20:32:16.001Z,13.78
2019-06-01T20:34:44.235Z,13.20
2019-06-01T20:37:12.508Z,13.78
2019-06-01T20:39:40.737Z,14.87
2019-06-01T20:42:21.081Z,15.63
2019-06-01T20:44:38.820Z,12.18
2019-06-01T20:47:07.026Z,14.03
2019-06-01T20:49:35.275Z,10.35
2019-06-01T20:52:03.810Z,12.55
2019-06-01T20:54:32.054Z,13.10
2019-06-01T20:57:00.247Z,13.05
2019-06-01T20:59:28.480Z,13.13
2019-06-01T21:01:56.679Z,8.88
2019-06-01T21:04:24.919Z,11.28
2019-06-01T21:06:53.131Z,7.83
2019-06-01T21:09:22.088Z,8.23
2019-06-01T21:11:50.242Z,7.62
2019-06-01T21:14:18.440Z,9.88
2019-06-01T21:16:46.664Z,8.85
2019-06-01T21:19:16.173Z,8.55
2019-06-01T21:21:44.504Z,9.55
2019-06-01T21:24:12.708Z,10.13
2019-06-01T21:26:40.922Z,8.55
2019-06-01T21:29:09.117Z,9.65
2019-06-01T21:31:37.339Z,9.73
2019-06-01T21:34:05.538Z,10.25
2019-06-01T21:36:33.758Z,9.38
2019-06-01T21:39:02.007Z,10.78
2019-06-01T21:41:30.188Z,8.55
2019-06-01T21:43:58.379Z,9.80
2019-06-01T21:46:26.592Z,9.83
2019-06-01T21:48:54.800Z,9.13
2019-06-01T21:51:24.039Z,9.65
2019-06-01T21:53:52.348Z,10.35
2019-06-01T21:56:22.128Z,10.10
2019-06-01T21:58:50.499Z,10.45
2019-06-01T22:01:18.696Z,7.70
2019-06-01T22:03:46.916Z,10.18
2019-06-01T22:06:15.116Z,9.23
2019-06-01T22:08:52.181Z,10.95
2019-06-01T22:11:13.184Z,12.37
2019-06-01T22:13:41.409Z,9.10
2019-06-01T22:16:09.605Z,9.55
2019-06-01T22:18:37.835Z,12.25
2019-06-01T22:21:06.036Z,12.55
2019-06-01T22:23:34.252Z,9.88
2019-06-01T22:26:02.452Z,8.48
2019-06-01T22:28:30.671Z,8.23
2019-06-01T22:30:58.905Z,7.80
2019-06-01T22:33:27.087Z,9.08
2019-06-01T22:35:55.308Z,8.83
2019-06-01T22:38:23.796Z,10.60
2019-06-01T22:40:52.123Z,8.45
2019-06-01T22:43:36.807Z,10.65
2019-06-01T22:45:50.204Z,9.88
2019-06-01T22:48:18.660Z,11.70
2019-06-01T22:50:46.888Z,8.35
2019-06-01T22:53:15.134Z,9.88
2019-06-01T22:55:43.361Z,8.33
2019-06-01T22:58:11.552Z,10.10
2019-06-01T23:00:39.779Z,10.80
2019-06-01T23:03:08.048Z,10.00
2019-06-01T23:05:36.271Z,10.13
2019-06-01T23:08:04.548Z,9.50
2019-06-01T23:10:35.417Z,11.03
2019-06-01T23:13:02.775Z,8.85
2019-06-01T23:15:31.935Z,10.75
2019-06-01T23:18:00.274Z,8.83
2019-06-01T23:20:28.541Z,7.42
2019-06-01T23:22:56.759Z,9.10
2019-06-01T23:25:24.962Z,9.10
2019-06-01T23:27:53.176Z,9.50
2019-06-01T23:30:22.013Z,11.53
2019-06-01T23:32:50.311Z,7.80
2019-06-01T23:35:18.499Z,9.25
2019-06-01T23:37:46.720Z,10.00
2019-06-01T23:40:14.910Z,7.22
2019-06-01T23:42:43.317Z,10.13
2019-06-01T23:45:11.515Z,11.73
2019-06-01T23:47:39.737Z,10.20
2019-06-01T23:50:07.936Z,8.88
2019-06-01T23:52:36.164Z,11.12
2019-06-01T23:55:07.085Z,9.50
2019-06-01T23:57:35.294Z,8.65
